Time;durP1;ratioP1;P1;durP2;ratioP2;P2;SDS_P1;SDS_P2;PMS_P1;PMS_P2;Temp;Humidity;BMP_temperature;BMP_pressure;BME280_temperature;BME280_humidity;BME280_pressure;Samples;Min_cycle;Max_cycle;Signal;HPM_P1;HPM_P2
2023/03/31 00:01:03;;;;;;;2.70;2.60;;;;;;;;;;4962844;28;21398;-53
2023/03/31 00:03:32;;;;;;;2.60;2.50;;;;;;;;;;4949604;28;20225;-54
2023/03/31 00:05:58;;;;;;;2.80;2.70;;;;;;;;;;4969301;28;20210;-53
2023/03/31 00:08:28;;;;;;;2.70;2.60;;;;;;;;;;4958410;28;20620;-54
2023/03/31 00:10:57;;;;;;;2.50;2.40;;;;;;;;;;4965131;28;20594;-53
2023/03/31 00:13:23;;;;;;;2.40;2.30;;;;;;;;;;4962124;28;20190;-54
2023/03/31 00:15:49;;;;;;;2.30;2.20;;;;;;;;;;4955338;28;20720;-53
2023/03/31 00:18:15;;;;;;;2.40;2.30;;;;;;;;;;4970079;28;20174;-53
2023/03/31 00:20:41;;;;;;;2.70;2.60;;;;;;;;;;4974286;28;20195;-53
2023/03/31 00:23:09;;;;;;;2.50;2.40;;;;;;;;;;4973293;28;20195;-54
2023/03/31 00:25:35;;;;;;;2.33;2.23;;;;;;;;;;4975318;28;20294;-53
2023/03/31 00:28:01;;;;;;;2.10;2.00;;;;;;;;;;4976874;28;20897;-52
2023/03/31 00:30:27;;;;;;;2.20;2.10;;;;;;;;;;4972222;28;20641;-54
2023/03/31 00:32:53;;;;;;;2.60;2.50;;;;;;;;;;4976137;28;20625;-52
2023/03/31 00:35:19;;;;;;;2.60;2.50;;;;;;;;;;4975947;28;20197;-53
2023/03/31 00:37:46;;;;;;;2.50;2.40;;;;;;;;;;4971023;28;20265;-52
2023/03/31 00:40:12;;;;;;;2.50;2.40;;;;;;;;;;4975800;28;20252;-52
2023/03/31 00:42:41;;;;;;;2.30;2.20;;;;;;;;;;4966331;28;20203;-53
2023/03/31 00:45:20;;;;;;;2.30;2.20;;;;;;;;;;4972457;28;20690;-53
2023/03/31 00:47:54;;;;;;;2.20;2.10;;;;;;;;;;4971136;28;20639;-53
2023/03/31 00:50:27;;;;;;;2.00;1.90;;;;;;;;;;4975217;28;20730;-52
2023/03/31 00:53:06;;;;;;;2.20;2.10;;;;;;;;;;4972141;28;20210;-53
2023/03/31 00:55:34;;;;;;;2.30;2.20;;;;;;;;;;4965197;28;20222;-52
2023/03/31 00:58:00;;;;;;;2.40;2.30;;;;;;;;;;4971470;28;20274;-53
2023/03/31 01:00:26;;;;;;;2.20;2.10;;;;;;;;;;4974642;28;20199;-52
2023/03/31 01:02:54;;;;;;;2.40;2.30;;;;;;;;;;4962206;28;20186;-53
2023/03/31 01:05:27;;;;;;;2.30;2.20;;;;;;;;;;4968850;28;20329;-52
2023/03/31 01:07:53;;;;;;;2.20;2.10;;;;;;;;;;4966823;28;20238;-53
2023/03/31 01:10:20;;;;;;;2.30;2.20;;;;;;;;;;4977204;28;20222;-51
2023/03/31 01:12:47;;;;;;;2.60;2.50;;;;;;;;;;4970505;28;20655;-53
2023/03/31 01:15:13;;;;;;;2.33;2.23;;;;;;;;;;4967681;28;20194;-53
2023/03/31 01:17:39;;;;;;;2.13;2.03;;;;;;;;;;4971442;28;20195;-52
2023/03/31 01:20:11;;;;;;;2.77;2.67;;;;;;;;;;4971852;28;20741;-52
2023/03/31 01:22:40;;;;;;;2.50;2.40;;;;;;;;;;4972323;28;20197;-53
2023/03/31 01:25:25;;;;;;;2.40;2.30;;;;;;;;;;4975388;28;20447;-52
2023/03/31 01:28:10;;;;;;;2.50;2.40;;;;;;;;;;4955447;28;20716;-53
2023/03/31 01:30:54;;;;;;;2.40;2.30;;;;;;;;;;4967631;28;20222;-53
2023/03/31 01:33:20;;;;;;;2.40;2.30;;;;;;;;;;4963730;28;20741;-52
2023/03/31 01:35:46;;;;;;;2.10;2.00;;;;;;;;;;4965375;28;20194;-52
2023/03/31 01:38:30;;;;;;;2.40;2.30;;;;;;;;;;4965289;28;20199;-52
2023/03/31 01:41:02;;;;;;;2.40;2.30;;;;;;;;;;4962963;28;20241;-52
2023/03/31 01:43:40;;;;;;;2.50;2.40;;;;;;;;;;4966280;28;20209;-52
2023/03/31 01:46:09;;;;;;;2.57;2.47;;;;;;;;;;4963928;28;20676;-53
2023/03/31 01:48:44;;;;;;;2.40;2.30;;;;;;;;;;4970689;28;20299;-53
2023/03/31 01:51:17;;;;;;;2.50;2.40;;;;;;;;;;4968592;28;20198;-54
2023/03/31 01:54:16;;;;;;;2.60;2.50;;;;;;;;;;4962058;28;20289;-53
2023/03/31 01:57:02;;;;;;;2.83;2.73;;;;;;;;;;4961052;28;20261;-53
2023/03/31 01:59:34;;;;;;;2.70;2.60;;;;;;;;;;4973107;28;20190;-53
2023/03/31 02:02:20;;;;;;;2.50;2.40;;;;;;;;;;4971856;28;20195;-52
2023/03/31 02:04:47;;;;;;;2.10;2.00;;;;;;;;;;4973863;28;20249;-52
2023/03/31 02:07:18;;;;;;;2.20;2.10;;;;;;;;;;4967668;28;20246;-53
2023/03/31 02:09:45;;;;;;;2.30;2.20;;;;;;;;;;4953143;28;20210;-53
2023/03/31 02:12:11;;;;;;;2.40;2.30;;;;;;;;;;4956702;28;20258;-53
2023/03/31 02:14:38;;;;;;;2.50;2.40;;;;;;;;;;4956688;28;20199;-54
2023/03/31 02:17:04;;;;;;;2.70;2.60;;;;;;;;;;4956024;28;20628;-52
2023/03/31 02:19:34;;;;;;;2.50;2.40;;;;;;;;;;4949928;28;20199;-53
2023/03/31 02:22:02;;;;;;;2.80;2.70;;;;;;;;;;4954061;28;20238;-53
2023/03/31 02:24:28;;;;;;;2.70;2.60;;;;;;;;;;4954378;28;20661;-53
2023/03/31 02:26:55;;;;;;;2.80;2.70;;;;;;;;;;4952077;28;20199;-52
2023/03/31 02:29:21;;;;;;;2.80;2.70;;;;;;;;;;4952033;28;20214;-52
2023/03/31 02:32:06;;;;;;;2.73;2.63;;;;;;;;;;4951798;28;20245;-52
2023/03/31 02:34:32;;;;;;;2.70;2.60;;;;;;;;;;4945008;28;20664;-53
2023/03/31 02:36:58;;;;;;;2.90;2.80;;;;;;;;;;4950934;28;20191;-52
2023/03/31 02:39:33;;;;;;;2.90;2.80;;;;;;;;;;4950482;28;20195;-53
2023/03/31 02:42:05;;;;;;;2.40;2.30;;;;;;;;;;4948909;28;20325;-53
2023/03/31 02:44:31;;;;;;;2.70;2.60;;;;;;;;;;4950748;28;20211;-52
2023/03/31 02:46:57;;;;;;;2.50;2.40;;;;;;;;;;4945851;28;20203;-52
2023/03/31 02:49:23;;;;;;;2.60;2.50;;;;;;;;;;4949569;28;20255;-52
2023/03/31 02:51:54;;;;;;;2.50;2.40;;;;;;;;;;4950432;28;20195;-53
2023/03/31 02:54:33;;;;;;;2.40;2.30;;;;;;;;;;4954233;28;20194;-53
2023/03/31 02:57:10;;;;;;;2.30;2.20;;;;;;;;;;4954535;28;20216;-53
2023/03/31 02:59:40;;;;;;;2.73;2.63;;;;;;;;;;4952138;28;20196;-53
2023/03/31 03:02:16;;;;;;;2.90;2.80;;;;;;;;;;4947971;28;20196;-53
2023/03/31 03:04:48;;;;;;;2.60;2.50;;;;;;;;;;4950306;28;20230;-51
2023/03/31 03:07:20;;;;;;;2.60;2.50;;;;;;;;;;4950220;28;20606;-53
2023/03/31 03:09:59;;;;;;;2.60;2.50;;;;;;;;;;4946926;28;20219;-52
2023/03/31 03:12:25;;;;;;;2.70;2.60;;;;;;;;;;4954238;28;20671;-52
2023/03/31 03:14:51;;;;;;;2.70;2.60;;;;;;;;;;4950742;28;20195;-53
2023/03/31 03:17:22;;;;;;;2.50;2.40;;;;;;;;;;4950722;28;21485;-52
2023/03/31 03:19:55;;;;;;;2.57;2.47;;;;;;;;;;4953151;28;20626;-53
2023/03/31 03:22:21;;;;;;;3.17;3.07;;;;;;;;;;4948668;28;20646;-52
2023/03/31 03:24:47;;;;;;;2.53;2.43;;;;;;;;;;4953859;28;20187;-52
2023/03/31 03:27:13;;;;;;;2.67;2.57;;;;;;;;;;4954372;28;20732;-51
2023/03/31 03:29:40;;;;;;;2.40;2.30;;;;;;;;;;4950402;28;20218;-53
2023/03/31 03:32:06;;;;;;;2.50;2.40;;;;;;;;;;4949494;28;20187;-52
2023/03/31 03:34:32;;;;;;;2.50;2.40;;;;;;;;;;4946074;28;20198;-52
2023/03/31 03:36:58;;;;;;;2.40;2.30;;;;;;;;;;4949825;28;20243;-53
2023/03/31 03:39:24;;;;;;;2.57;2.47;;;;;;;;;;4950669;28;20195;-53
2023/03/31 03:41:50;;;;;;;2.50;2.40;;;;;;;;;;4970786;28;20596;-53
2023/03/31 03:44:16;;;;;;;2.20;2.10;;;;;;;;;;4950554;28;20207;-53
2023/03/31 03:46:42;;;;;;;2.87;2.77;;;;;;;;;;4955789;28;20254;-52
2023/03/31 03:49:08;;;;;;;2.80;2.70;;;;;;;;;;4952755;28;20238;-52
2023/03/31 03:51:34;;;;;;;2.80;2.70;;;;;;;;;;4951314;28;20238;-52
2023/03/31 03:54:00;;;;;;;2.80;2.70;;;;;;;;;;4958706;28;20623;-53
2023/03/31 03:56:26;;;;;;;2.80;2.70;;;;;;;;;;4949521;28;20282;-52
2023/03/31 03:58:52;;;;;;;2.70;2.60;;;;;;;;;;4957184;28;20214;-52
2023/03/31 04:01:18;;;;;;;2.80;2.70;;;;;;;;;;4951470;28;20195;-52
2023/03/31 04:03:44;;;;;;;2.60;2.50;;;;;;;;;;4960729;28;20198;-52
2023/03/31 04:06:10;;;;;;;2.57;2.47;;;;;;;;;;4950312;28;20626;-52
2023/03/31 04:08:36;;;;;;;2.90;2.80;;;;;;;;;;4968796;28;20321;-56
2023/03/31 04:11:02;;;;;;;2.70;2.60;;;;;;;;;;4977220;28;20187;-52
2023/03/31 04:13:28;;;;;;;2.90;2.80;;;;;;;;;;4979158;28;20705;-52
2023/03/31 04:15:54;;;;;;;2.90;2.80;;;;;;;;;;4978921;28;20202;-52
2023/03/31 04:18:23;;;;;;;3.10;3.00;;;;;;;;;;4972877;28;20190;-53
2023/03/31 04:21:05;;;;;;;2.67;2.57;;;;;;;;;;4966907;28;20210;-53
2023/03/31 04:23:37;;;;;;;2.80;2.70;;;;;;;;;;4975145;28;20278;-53
2023/03/31 04:26:07;;;;;;;2.80;2.70;;;;;;;;;;4971841;28;20188;-57
2023/03/31 04:28:33;;;;;;;2.80;2.70;;;;;;;;;;4968341;28;20618;-52
2023/03/31 04:31:00;;;;;;;2.80;2.70;;;;;;;;;;4955933;28;20224;-52
2023/03/31 04:33:26;;;;;;;2.70;2.60;;;;;;;;;;4961376;28;20256;-53
2023/03/31 04:35:52;;;;;;;2.70;2.60;;;;;;;;;;4969060;28;20195;-53
2023/03/31 04:38:18;;;;;;;2.50;2.40;;;;;;;;;;4964759;28;20186;-53
2023/03/31 04:40:45;;;;;;;2.80;2.70;;;;;;;;;;4959297;28;20198;-53
2023/03/31 04:43:11;;;;;;;2.70;2.60;;;;;;;;;;4961180;28;20336;-52
2023/03/31 04:45:37;;;;;;;2.70;2.60;;;;;;;;;;4965401;28;20195;-53
2023/03/31 04:48:03;;;;;;;2.50;2.40;;;;;;;;;;4972648;28;20209;-52
2023/03/31 04:50:29;;;;;;;2.90;2.80;;;;;;;;;;4960567;28;20260;-53
2023/03/31 04:52:55;;;;;;;2.80;2.70;;;;;;;;;;4970105;28;20191;-54
2023/03/31 04:55:21;;;;;;;2.77;2.67;;;;;;;;;;4967533;28;20181;-52
2023/03/31 04:57:47;;;;;;;3.00;2.90;;;;;;;;;;4969012;28;20661;-53
2023/03/31 05:00:13;;;;;;;2.97;2.87;;;;;;;;;;4961496;28;20674;-52
2023/03/31 05:02:39;;;;;;;3.40;3.30;;;;;;;;;;4969011;28;20550;-53
2023/03/31 05:05:05;;;;;;;2.80;2.70;;;;;;;;;;4965215;28;20194;-53
2023/03/31 05:07:31;;;;;;;2.80;2.70;;;;;;;;;;4970392;28;20359;-52
2023/03/31 05:09:57;;;;;;;2.90;2.80;;;;;;;;;;4963939;28;20812;-52
2023/03/31 05:12:24;;;;;;;3.00;2.90;;;;;;;;;;4965148;28;20716;-52
2023/03/31 05:14:50;;;;;;;3.00;2.90;;;;;;;;;;4968885;28;20194;-52
2023/03/31 05:17:16;;;;;;;3.23;3.13;;;;;;;;;;4955717;28;20219;-53
2023/03/31 05:19:42;;;;;;;3.03;2.93;;;;;;;;;;4964891;28;20198;-52
2023/03/31 05:22:08;;;;;;;2.83;2.73;;;;;;;;;;4975828;28;20190;-52
2023/03/31 05:24:34;;;;;;;2.70;2.60;;;;;;;;;;4969429;28;20201;-52
2023/03/31 05:27:00;;;;;;;2.57;2.47;;;;;;;;;;4957346;28;20281;-53
2023/03/31 05:29:26;;;;;;;2.70;2.60;;;;;;;;;;4972730;28;20603;-52
2023/03/31 05:31:52;;;;;;;2.30;2.20;;;;;;;;;;4968000;28;20206;-53
2023/03/31 05:34:18;;;;;;;2.60;2.50;;;;;;;;;;4973778;28;20186;-51
2023/03/31 05:39:48;;;;;;;2.30;2.20;;;;;;;;;;4981220;23;20278;-58
2023/03/31 05:42:14;;;;;;;2.60;2.50;;;;;;;;;;4964193;28;20194;-58
2023/03/31 05:44:40;;;;;;;2.70;2.60;;;;;;;;;;4967161;28;20255;-58
2023/03/31 05:47:06;;;;;;;2.80;2.70;;;;;;;;;;4964131;28;20301;-58
2023/03/31 05:49:32;;;;;;;2.80;2.70;;;;;;;;;;4959757;28;20247;-61
2023/03/31 05:51:58;;;;;;;2.50;2.40;;;;;;;;;;4961157;28;20542;-58
2023/03/31 05:54:24;;;;;;;2.50;2.40;;;;;;;;;;4962805;28;20193;-58
2023/03/31 05:56:50;;;;;;;2.70;2.60;;;;;;;;;;4963644;28;20222;-58
2023/03/31 05:59:16;;;;;;;2.40;2.30;;;;;;;;;;4957527;28;20297;-58
2023/03/31 06:01:42;;;;;;;2.50;2.40;;;;;;;;;;4969310;28;20621;-57
2023/03/31 06:04:08;;;;;;;2.80;2.70;;;;;;;;;;4968285;28;20674;-58
2023/03/31 06:06:34;;;;;;;2.60;2.50;;;;;;;;;;4972800;28;20218;-58
2023/03/31 06:09:00;;;;;;;2.80;2.70;;;;;;;;;;4972067;28;20229;-58
2023/03/31 06:11:25;;;;;;;2.50;2.40;;;;;;;;;;4981470;28;20230;-58
2023/03/31 06:13:51;;;;;;;2.50;2.40;;;;;;;;;;4973252;28;20265;-58
2023/03/31 06:16:17;;;;;;;2.40;2.30;;;;;;;;;;4982824;28;20619;-58
2023/03/31 06:18:43;;;;;;;2.80;2.70;;;;;;;;;;4978532;28;20198;-58
2023/03/31 06:21:13;;;;;;;2.80;2.70;;;;;;;;;;4973628;28;20190;-59
2023/03/31 06:23:39;;;;;;;2.70;2.60;;;;;;;;;;4980121;28;20250;-58
2023/03/31 06:26:06;;;;;;;2.77;2.67;;;;;;;;;;4977677;28;20664;-58
2023/03/31 06:28:33;;;;;;;2.70;2.60;;;;;;;;;;4973828;28;20186;-58
2023/03/31 06:30:59;;;;;;;2.70;2.60;;;;;;;;;;4973561;28;20253;-58
2023/03/31 06:33:25;;;;;;;2.40;2.30;;;;;;;;;;4964184;28;20858;-58
2023/03/31 06:35:51;;;;;;;2.97;2.87;;;;;;;;;;4968885;28;20198;-58
2023/03/31 06:38:17;;;;;;;2.80;2.70;;;;;;;;;;4971130;28;20202;-58
2023/03/31 06:40:43;;;;;;;2.50;2.40;;;;;;;;;;4974572;28;20238;-58
2023/03/31 06:43:09;;;;;;;2.80;2.70;;;;;;;;;;4974042;28;20225;-58
2023/03/31 06:45:36;;;;;;;2.60;2.50;;;;;;;;;;4970370;28;20635;-58
2023/03/31 06:48:02;;;;;;;2.90;2.80;;;;;;;;;;4969106;28;20228;-58
2023/03/31 06:50:28;;;;;;;2.60;2.50;;;;;;;;;;4972979;28;20297;-58
2023/03/31 06:52:54;;;;;;;2.50;2.40;;;;;;;;;;4976346;28;20204;-58
2023/03/31 06:55:20;;;;;;;2.60;2.50;;;;;;;;;;4972280;28;20212;-59
2023/03/31 06:57:46;;;;;;;2.70;2.60;;;;;;;;;;4970418;28;20198;-58
2023/03/31 07:00:12;;;;;;;2.70;2.60;;;;;;;;;;4971797;28;20299;-58
2023/03/31 07:02:38;;;;;;;2.50;2.40;;;;;;;;;;4974834;28;20199;-58
2023/03/31 07:05:04;;;;;;;2.70;2.60;;;;;;;;;;4970698;28;20543;-58
2023/03/31 07:07:33;;;;;;;2.60;2.50;;;;;;;;;;4978322;28;20248;-58
2023/03/31 07:09:59;;;;;;;2.30;2.20;;;;;;;;;;4974789;28;20328;-58
2023/03/31 07:12:25;;;;;;;2.50;2.40;;;;;;;;;;4978950;28;20387;-58
2023/03/31 07:14:51;;;;;;;2.30;2.20;;;;;;;;;;4973568;28;20560;-58
2023/03/31 07:17:17;;;;;;;2.50;2.40;;;;;;;;;;4972432;28;20820;-58
2023/03/31 07:19:46;;;;;;;2.57;2.47;;;;;;;;;;4976106;28;20667;-58
2023/03/31 07:22:13;;;;;;;2.30;2.20;;;;;;;;;;4973252;28;20249;-58
2023/03/31 07:24:39;;;;;;;2.50;2.40;;;;;;;;;;4966652;28;20194;-58
2023/03/31 07:27:05;;;;;;;2.40;2.30;;;;;;;;;;4966530;28;20281;-58
2023/03/31 07:29:31;;;;;;;2.30;2.20;;;;;;;;;;4951180;28;20762;-58
2023/03/31 07:31:57;;;;;;;2.23;2.13;;;;;;;;;;4967681;28;20275;-58
2023/03/31 07:34:23;;;;;;;2.10;2.00;;;;;;;;;;4966464;28;20274;-58
2023/03/31 07:36:50;;;;;;;2.00;1.90;;;;;;;;;;4980727;28;20217;-58
2023/03/31 07:39:16;;;;;;;2.30;2.20;;;;;;;;;;4974147;28;20742;-58
2023/03/31 07:41:42;;;;;;;2.50;2.40;;;;;;;;;;4973010;28;20197;-58
2023/03/31 07:44:08;;;;;;;2.20;2.10;;;;;;;;;;4969583;28;20258;-58
2023/03/31 07:46:34;;;;;;;2.20;2.10;;;;;;;;;;4969029;28;20742;-58
2023/03/31 07:49:02;;;;;;;1.50;1.50;;;;;;;;;;4965449;28;20197;-58
2023/03/31 07:51:28;;;;;;;1.50;1.50;;;;;;;;;;4973128;28;20198;-58
2023/03/31 07:53:54;;;;;;;1.60;1.60;;;;;;;;;;4961914;28;20186;-58
2023/03/31 07:56:20;;;;;;;1.50;1.50;;;;;;;;;;4981585;28;20647;-58
2023/03/31 07:58:46;;;;;;;2.20;2.10;;;;;;;;;;4973672;28;20647;-59
2023/03/31 08:01:18;;;;;;;2.00;1.90;;;;;;;;;;4975775;28;20194;-58
2023/03/31 08:03:45;;;;;;;2.30;2.20;;;;;;;;;;4959941;28;20218;-58
2023/03/31 08:06:11;;;;;;;2.10;2.00;;;;;;;;;;4962830;28;20218;-57
2023/03/31 08:08:41;;;;;;;2.00;1.90;;;;;;;;;;4969795;28;20623;-57
2023/03/31 08:11:07;;;;;;;2.00;1.90;;;;;;;;;;4966349;28;20231;-58
2023/03/31 08:13:33;;;;;;;2.20;2.10;;;;;;;;;;4973396;28;20286;-58
2023/03/31 08:15:59;;;;;;;2.20;2.10;;;;;;;;;;4969642;28;24216;-59
2023/03/31 08:18:25;;;;;;;3.00;2.90;;;;;;;;;;4972068;28;20264;-58
2023/03/31 08:20:51;;;;;;;2.90;2.80;;;;;;;;;;4974475;28;21172;-59
2023/03/31 08:23:17;;;;;;;2.70;2.60;;;;;;;;;;4969462;28;20186;-59
2023/03/31 08:25:43;;;;;;;1.83;1.73;;;;;;;;;;4964606;28;20276;-59
2023/03/31 08:28:16;;;;;;;2.47;2.37;;;;;;;;;;4970084;28;20655;-59
2023/03/31 08:30:42;;;;;;;2.80;2.70;;;;;;;;;;4969431;28;20249;-59
2023/03/31 08:33:08;;;;;;;3.03;2.93;;;;;;;;;;4964321;28;20528;-58
2023/03/31 08:35:34;;;;;;;2.60;2.50;;;;;;;;;;4972750;28;20195;-59
2023/03/31 08:38:00;;;;;;;3.30;3.20;;;;;;;;;;4964386;28;20191;-59
2023/03/31 08:40:27;;;;;;;2.50;2.40;;;;;;;;;;4963775;28;20242;-59
2023/03/31 08:42:53;;;;;;;2.50;2.40;;;;;;;;;;4970816;28;20198;-59
2023/03/31 08:45:21;;;;;;;2.10;2.00;;;;;;;;;;4971384;28;20206;-59
2023/03/31 08:47:47;;;;;;;2.03;1.93;;;;;;;;;;4968422;28;20345;-59
2023/03/31 08:50:14;;;;;;;2.87;2.77;;;;;;;;;;4964324;28;20394;-60
2023/03/31 08:53:00;;;;;;;2.10;2.00;;;;;;;;;;4958831;28;20643;-60
2023/03/31 08:55:41;;;;;;;2.00;1.90;;;;;;;;;;4940853;28;20845;-60
2023/03/31 08:58:17;;;;;;;1.90;1.80;;;;;;;;;;4979989;28;20226;-60
2023/03/31 09:00:46;;;;;;;0.90;0.90;;;;;;;;;;4966732;28;20597;-59
2023/03/31 09:03:32;;;;;;;1.30;1.30;;;;;;;;;;4964437;28;20197;-58
2023/03/31 09:06:02;;;;;;;1.50;1.50;;;;;;;;;;4969368;28;20243;-59
2023/03/31 09:08:32;;;;;;;1.47;1.47;;;;;;;;;;4972594;28;20618;-59
2023/03/31 09:11:02;;;;;;;0.90;0.90;;;;;;;;;;4969979;28;20218;-59
2023/03/31 09:13:43;;;;;;;1.30;1.30;;;;;;;;;;4969525;28;20212;-59
2023/03/31 09:16:16;;;;;;;0.80;0.80;;;;;;;;;;4968610;28;20187;-59
2023/03/31 09:18:48;;;;;;;1.30;1.30;;;;;;;;;;4963763;28;20187;-59
2023/03/31 09:21:28;;;;;;;1.50;1.50;;;;;;;;;;4971653;28;20274;-61
2023/03/31 09:24:00;;;;;;;1.00;1.00;;;;;;;;;;4959446;28;20198;-61
2023/03/31 09:26:29;;;;;;;0.90;0.90;;;;;;;;;;4971739;28;20190;-60
2023/03/31 09:28:55;;;;;;;1.20;1.20;;;;;;;;;;4972903;28;20202;-61
2023/03/31 09:31:21;;;;;;;1.40;1.40;;;;;;;;;;4968462;28;20603;-60
2023/03/31 09:33:47;;;;;;;0.98;0.98;;;;;;;;;;4969817;28;20253;-60
2023/03/31 09:36:14;;;;;;;1.05;1.05;;;;;;;;;;4963181;28;20269;-60
2023/03/31 09:38:41;;;;;;;1.50;1.50;;;;;;;;;;4944574;28;20195;-61
2023/03/31 09:41:07;;;;;;;2.08;1.98;;;;;;;;;;4944578;28;20194;-61
2023/03/31 09:43:37;;;;;;;2.97;2.88;;;;;;;;;;4963962;28;20186;-60
2023/03/31 09:46:03;;;;;;;1.90;1.80;;;;;;;;;;4965867;28;20196;-61
2023/03/31 09:48:30;;;;;;;1.30;1.30;;;;;;;;;;4967397;28;20601;-60
2023/03/31 09:51:00;;;;;;;1.50;1.50;;;;;;;;;;4960132;28;20224;-60
2023/03/31 09:53:32;;;;;;;1.48;1.48;;;;;;;;;;4966485;28;20182;-60
2023/03/31 09:56:02;;;;;;;1.30;1.30;;;;;;;;;;4950562;28;20199;-60
2023/03/31 09:58:28;;;;;;;1.40;1.40;;;;;;;;;;4973630;28;20187;-60
2023/03/31 10:01:01;;;;;;;1.38;1.38;;;;;;;;;;4974833;28;20209;-59
2023/03/31 10:03:28;;;;;;;1.50;1.50;;;;;;;;;;4960848;28;20229;-59
2023/03/31 10:05:55;;;;;;;1.40;1.40;;;;;;;;;;4974794;28;20199;-60
2023/03/31 10:08:33;;;;;;;1.30;1.30;;;;;;;;;;4976990;28;20198;-59
2023/03/31 10:11:02;;;;;;;1.50;1.50;;;;;;;;;;4972676;28;20213;-60
2023/03/31 10:13:28;;;;;;;1.40;1.40;;;;;;;;;;4973483;28;20263;-61
2023/03/31 10:16:00;;;;;;;1.30;1.30;;;;;;;;;;4974866;28;20182;-61
2023/03/31 10:18:36;;;;;;;1.40;1.40;;;;;;;;;;4972242;28;20697;-60
2023/03/31 10:21:03;;;;;;;1.30;1.30;;;;;;;;;;4970930;28;20229;-60
2023/03/31 10:23:31;;;;;;;1.30;1.30;;;;;;;;;;4967286;28;20223;-61
2023/03/31 10:25:57;;;;;;;1.30;1.30;;;;;;;;;;4974815;28;20206;-60
2023/03/31 10:28:23;;;;;;;1.30;1.30;;;;;;;;;;4982920;28;20245;-60
2023/03/31 10:30:49;;;;;;;1.40;1.40;;;;;;;;;;4954157;28;20207;-61
2023/03/31 10:33:16;;;;;;;1.40;1.40;;;;;;;;;;4968149;28;20194;-61
2023/03/31 10:35:42;;;;;;;1.30;1.30;;;;;;;;;;4974646;28;20600;-61
2023/03/31 10:38:11;;;;;;;1.40;1.40;;;;;;;;;;4969376;28;21475;-68
2023/03/31 10:40:37;;;;;;;1.20;1.20;;;;;;;;;;4963916;28;20313;-61
2023/03/31 10:43:05;;;;;;;1.40;1.40;;;;;;;;;;4972825;28;20619;-60
2023/03/31 10:45:36;;;;;;;1.40;1.40;;;;;;;;;;4969858;28;20201;-60
2023/03/31 10:48:02;;;;;;;2.80;2.65;;;;;;;;;;4967620;28;20194;-60
2023/03/31 10:50:32;;;;;;;1.40;1.40;;;;;;;;;;4972828;28;21523;-60
2023/03/31 10:53:04;;;;;;;1.20;1.20;;;;;;;;;;4950362;28;20250;-60
2023/03/31 10:55:33;;;;;;;1.40;1.40;;;;;;;;;;4960332;28;20195;-59
2023/03/31 10:58:22;;;;;;;1.40;1.40;;;;;;;;;;4965248;28;20191;-59
2023/03/31 11:00:52;;;;;;;1.50;1.50;;;;;;;;;;4948923;28;20473;-59
2023/03/31 11:03:21;;;;;;;0.87;0.87;;;;;;;;;;4961875;28;20187;-60
2023/03/31 11:05:51;;;;;;;1.40;1.40;;;;;;;;;;4969202;28;20698;-60
2023/03/31 11:08:36;;;;;;;1.63;1.57;;;;;;;;;;4977197;28;20651;-59
2023/03/31 11:11:12;;;;;;;1.47;1.47;;;;;;;;;;4976202;28;20289;-64
2023/03/31 11:13:53;;;;;;;2.80;2.70;;;;;;;;;;4970413;28;20186;-59
2023/03/31 11:16:31;;;;;;;2.40;2.30;;;;;;;;;;4959904;28;20273;-58
2023/03/31 11:19:06;;;;;;;2.50;2.40;;;;;;;;;;4971024;28;20204;-58
2023/03/31 11:21:46;;;;;;;2.30;2.20;;;;;;;;;;4971018;28;20219;-58
2023/03/31 11:24:21;;;;;;;2.60;2.50;;;;;;;;;;4970083;28;20210;-58
2023/03/31 11:26:53;;;;;;;2.53;2.43;;;;;;;;;;4972338;28;20673;-59
2023/03/31 11:29:22;;;;;;;2.20;2.10;;;;;;;;;;4959313;28;20210;-58
2023/03/31 11:31:57;;;;;;;2.20;2.10;;;;;;;;;;4968803;28;20190;-59
2023/03/31 11:34:36;;;;;;;2.20;2.10;;;;;;;;;;4964168;28;20737;-58
2023/03/31 11:37:07;;;;;;;2.00;1.90;;;;;;;;;;4974107;28;20187;-58
2023/03/31 11:39:40;;;;;;;2.00;1.90;;;;;;;;;;4974988;28;20245;-58
2023/03/31 11:42:23;;;;;;;2.10;2.00;;;;;;;;;;4952944;28;20190;-58
2023/03/31 11:44:51;;;;;;;1.90;1.80;;;;;;;;;;4965520;28;20914;-60
2023/03/31 11:47:22;;;;;;;2.00;1.90;;;;;;;;;;4970177;28;20194;-58
2023/03/31 11:49:50;;;;;;;2.10;2.00;;;;;;;;;;4950068;28;20214;-58
2023/03/31 11:52:17;;;;;;;2.10;2.00;;;;;;;;;;4980354;28;20201;-58
2023/03/31 11:55:06;;;;;;;1.90;1.80;;;;;;;;;;4955852;28;20289;-58
2023/03/31 11:57:35;;;;;;;2.00;1.90;;;;;;;;;;4969258;28;20681;-58
2023/03/31 12:00:06;;;;;;;2.20;2.10;;;;;;;;;;4972538;28;20278;-58
2023/03/31 12:02:59;;;;;;;1.20;1.20;;;;;;;;;;4958742;28;20198;-58
2023/03/31 12:05:25;;;;;;;1.20;1.20;;;;;;;;;;4972449;28;20202;-57
2023/03/31 12:07:58;;;;;;;1.30;1.30;;;;;;;;;;4968324;28;20617;-58
2023/03/31 12:10:35;;;;;;;1.30;1.30;;;;;;;;;;4975269;28;20218;-58
2023/03/31 12:13:10;;;;;;;1.40;1.40;;;;;;;;;;4959644;28;20201;-58
2023/03/31 12:15:40;;;;;;;1.20;1.20;;;;;;;;;;4979382;28;20553;-58
2023/03/31 12:18:13;;;;;;;1.30;1.30;;;;;;;;;;4980081;28;20202;-59
2023/03/31 12:21:11;;;;;;;1.20;1.20;;;;;;;;;;4976835;28;20330;-58
2023/03/31 12:23:41;;;;;;;1.30;1.30;;;;;;;;;;4954972;28;20272;-58
2023/03/31 12:26:22;;;;;;;1.13;1.13;;;;;;;;;;4972622;28;20186;-58
2023/03/31 12:28:48;;;;;;;1.25;1.25;;;;;;;;;;4975896;28;20194;-59
2023/03/31 12:31:19;;;;;;;1.30;1.30;;;;;;;;;;4977361;28;20264;-59
2023/03/31 12:33:53;;;;;;;1.40;1.40;;;;;;;;;;4975548;28;20865;-59
2023/03/31 12:36:26;;;;;;;0.70;0.70;;;;;;;;;;4976631;28;20195;-60
2023/03/31 12:38:56;;;;;;;1.20;1.20;;;;;;;;;;4965617;28;20616;-60
2023/03/31 12:41:40;;;;;;;1.20;1.20;;;;;;;;;;4973090;28;20191;-61
2023/03/31 12:44:35;;;;;;;1.30;1.30;;;;;;;;;;4974540;28;20253;-60
2023/03/31 12:47:14;;;;;;;1.30;1.30;;;;;;;;;;4954706;28;20202;-60
2023/03/31 12:49:43;;;;;;;1.20;1.20;;;;;;;;;;4958062;28;20226;-60
2023/03/31 12:52:17;;;;;;;1.20;1.20;;;;;;;;;;4977140;28;20446;-60
2023/03/31 12:54:51;;;;;;;1.40;1.40;;;;;;;;;;4957538;28;21421;-60
2023/03/31 12:57:22;;;;;;;1.30;1.30;;;;;;;;;;4977613;28;20261;-59
2023/03/31 13:00:05;;;;;;;1.30;1.30;;;;;;;;;;4975030;28;20208;-60
2023/03/31 13:02:31;;;;;;;1.30;1.30;;;;;;;;;;4975615;28;20744;-60
2023/03/31 13:04:57;;;;;;;1.35;1.35;;;;;;;;;;4974575;28;20187;-60
2023/03/31 13:07:26;;;;;;;1.30;1.30;;;;;;;;;;4955130;28;20196;-60
2023/03/31 13:10:20;;;;;;;1.20;1.20;;;;;;;;;;4981896;28;20206;-60
2023/03/31 13:13:05;;;;;;;1.30;1.30;;;;;;;;;;4973630;28;20202;-60
2023/03/31 13:15:31;;;;;;;1.40;1.40;;;;;;;;;;4975506;28;20202;-60
2023/03/31 13:18:01;;;;;;;1.30;1.30;;;;;;;;;;4973863;28;20662;-60
2023/03/31 13:20:27;;;;;;;1.20;1.20;;;;;;;;;;4974515;28;20179;-60
2023/03/31 13:22:59;;;;;;;1.20;1.20;;;;;;;;;;4971677;28;20226;-60
2023/03/31 13:25:34;;;;;;;1.30;1.30;;;;;;;;;;4958478;28;20225;-60
2023/03/31 13:28:26;;;;;;;1.30;1.30;;;;;;;;;;4973087;28;20277;-60
2023/03/31 13:30:56;;;;;;;1.30;1.30;;;;;;;;;;4964752;28;20230;-60
2023/03/31 13:33:26;;;;;;;1.20;1.20;;;;;;;;;;4972568;28;20322;-60
2023/03/31 13:36:11;;;;;;;1.20;1.20;;;;;;;;;;4951975;28;20261;-60
2023/03/31 13:38:56;;;;;;;1.20;1.20;;;;;;;;;;4967267;28;20282;-60
2023/03/31 13:41:22;;;;;;;1.30;1.30;;;;;;;;;;4966194;28;21035;-60
2023/03/31 13:43:48;;;;;;;1.20;1.20;;;;;;;;;;4970780;28;20183;-60
2023/03/31 13:46:22;;;;;;;1.20;1.20;;;;;;;;;;4971568;28;20201;-60
2023/03/31 13:48:50;;;;;;;1.20;1.20;;;;;;;;;;4974542;28;20189;-60
2023/03/31 13:51:22;;;;;;;1.40;1.40;;;;;;;;;;4958192;28;20218;-60
2023/03/31 13:54:12;;;;;;;1.20;1.20;;;;;;;;;;4971916;28;20201;-60
2023/03/31 13:56:48;;;;;;;1.40;1.40;;;;;;;;;;4968111;28;20251;-60
2023/03/31 13:59:20;;;;;;;1.30;1.30;;;;;;;;;;4956390;28;20213;-61
2023/03/31 14:01:49;;;;;;;1.20;1.20;;;;;;;;;;4972078;28;20217;-60
2023/03/31 14:04:18;;;;;;;1.30;1.30;;;;;;;;;;4968698;28;20697;-60
2023/03/31 14:06:47;;;;;;;1.20;1.20;;;;;;;;;;4976613;28;20190;-60
2023/03/31 14:09:16;;;;;;;1.20;1.20;;;;;;;;;;4978198;28;20192;-60
2023/03/31 14:11:42;;;;;;;1.30;1.30;;;;;;;;;;4971688;28;20694;-60
2023/03/31 14:14:13;;;;;;;1.30;1.30;;;;;;;;;;4973144;28;20189;-60
2023/03/31 14:16:40;;;;;;;1.30;1.30;;;;;;;;;;4971379;28;20280;-60
2023/03/31 14:19:39;;;;;;;1.20;1.20;;;;;;;;;;4955266;28;20206;-60
2023/03/31 14:22:07;;;;;;;1.20;1.20;;;;;;;;;;4942553;28;20205;-60
2023/03/31 14:24:36;;;;;;;1.20;1.20;;;;;;;;;;4973110;28;20218;-60
2023/03/31 14:27:11;;;;;;;1.40;1.40;;;;;;;;;;4980595;28;20179;-60
2023/03/31 14:30:00;;;;;;;1.30;1.30;;;;;;;;;;4960328;28;20241;-60
2023/03/31 14:32:40;;;;;;;1.45;1.45;;;;;;;;;;4941012;28;20205;-60
2023/03/31 14:35:06;;;;;;;1.30;1.30;;;;;;;;;;4960464;28;20214;-60
2023/03/31 14:37:32;;;;;;;1.27;1.27;;;;;;;;;;4978791;28;20308;-60
2023/03/31 14:39:58;;;;;;;1.30;1.30;;;;;;;;;;4967204;28;20314;-60
2023/03/31 14:42:40;;;;;;;1.35;1.35;;;;;;;;;;4972445;28;20183;-60
2023/03/31 14:45:08;;;;;;;1.30;1.30;;;;;;;;;;4963100;28;20787;-59
2023/03/31 14:47:34;;;;;;;1.30;1.30;;;;;;;;;;4971713;28;20203;-60
2023/03/31 14:50:16;;;;;;;1.40;1.40;;;;;;;;;;4974597;28;20281;-59
2023/03/31 14:52:49;;;;;;;1.30;1.30;;;;;;;;;;4978687;28;20245;-60
2023/03/31 14:55:16;;;;;;;1.40;1.40;;;;;;;;;;4979775;28;20191;-60
2023/03/31 14:57:42;;;;;;;1.50;1.50;;;;;;;;;;4982235;28;20186;-60
2023/03/31 15:00:09;;;;;;;1.30;1.30;;;;;;;;;;4979217;28;20202;-59
2023/03/31 15:02:35;;;;;;;1.40;1.40;;;;;;;;;;4982391;28;20199;-60